NJS0038 SEGS-SEQM
Flight info
| Callsign | NJS0038 |
|---|---|
| Flight time | 2h 4m |
| Altitude | 27000 |
| Route | EKOTI3A REDUS UT21 MIDEX / RNP T 36 |
| Aircraft | RJ1H/M-SDFGIRWY/LB1 |
Departure
| Time | 2026-04-25 18:42 |
|---|---|
| Airport | Seymour Galapagos Ecological Airport (SEGS) |
Arrival
| Time | 2026-04-25 20:47 |
|---|---|
| Airport | Mariscal Sucre International Airport (SEQM) |
| Time | Latitude | Longitude | Altitude | Speed | Heading |
|---|---|---|---|---|---|
| 2026-04-25 18:11 | -0.44600 | -90.26937 | 169 ft | 0 kts | 238° |
| 2026-04-25 18:12 | -0.44581 | -90.26949 | 164 ft | 0 kts | 238° |
| 2026-04-25 18:12 | -0.44603 | -90.27030 | 162 ft | 0 kts | 142° |
| 2026-04-25 18:12 | -0.44598 | -90.27023 | 161 ft | 0 kts | 142° |
| 2026-04-25 18:37 | -0.44599 | -90.27022 | 164 ft | 1 kts | 142° |
| 2026-04-25 18:37 | -0.44605 | -90.27018 | 161 ft | 2 kts | 148° |
| 2026-04-25 18:38 | -0.44619 | -90.27018 | 161 ft | 3 kts | 212° |
| 2026-04-25 18:38 | -0.44635 | -90.27033 | 161 ft | 4 kts | 219° |
| 2026-04-25 18:38 | -0.44652 | -90.27052 | 162 ft | 5 kts | 231° |
| 2026-04-25 18:38 | -0.44667 | -90.27091 | 161 ft | 8 kts | 289° |
| 2026-04-25 18:39 | -0.44612 | -90.27141 | 159 ft | 14 kts | 324° |
| 2026-04-25 18:39 | -0.44515 | -90.27185 | 153 ft | 15 kts | 31° |
| 2026-04-25 18:39 | -0.44492 | -90.27211 | 152 ft | 7 kts | 244° |
| 2026-04-25 18:39 | -0.44506 | -90.27214 | 151 ft | 1 kts | 147° |
| 2026-04-25 18:40 | -0.44507 | -90.27214 | 151 ft | 0 kts | 146° |
| 2026-04-25 18:41 | -0.44633 | -90.27124 | 160 ft | 49 kts | 143° |
| 2026-04-25 18:41 | -0.45041 | -90.26830 | 175 ft | 92 kts | 143° |
| 2026-04-25 18:41 | -0.45639 | -90.26394 | 191 ft | 125 kts | 143° |
| 2026-04-25 18:42 | -0.46437 | -90.25820 | 426 ft | 151 kts | 143° |
| 2026-04-25 18:42 | -0.46730 | -90.25612 | 576 ft | 155 kts | 143° |
| 2026-04-25 18:42 | -0.48184 | -90.24577 | 1543 ft | 156 kts | 143° |
| 2026-04-25 18:42 | -0.48927 | -90.23805 | 1843 ft | 157 kts | 109° |
| 2026-04-25 18:43 | -0.49129 | -90.22708 | 2012 ft | 170 kts | 101° |
| 2026-04-25 18:43 | -0.49330 | -90.21482 | 2013 ft | 186 kts | 100° |
| 2026-04-25 18:43 | -0.49527 | -90.20165 | 2036 ft | 197 kts | 99° |
| 2026-04-25 18:43 | -0.49718 | -90.18760 | 1985 ft | 214 kts | 98° |
| 2026-04-25 18:44 | -0.49912 | -90.17241 | 2191 ft | 227 kts | 98° |
| 2026-04-25 18:44 | -0.50108 | -90.15673 | 2797 ft | 228 kts | 98° |
| 2026-04-25 18:44 | -0.50304 | -90.14101 | 3401 ft | 228 kts | 99° |
| 2026-04-25 18:44 | -0.50517 | -90.12510 | 3939 ft | 231 kts | 99° |
| 2026-04-25 18:45 | -0.50730 | -90.10906 | 4448 ft | 239 kts | 99° |
| 2026-04-25 18:45 | -0.50966 | -90.09206 | 4697 ft | 254 kts | 99° |
| 2026-04-25 18:45 | -0.51211 | -90.07420 | 4917 ft | 264 kts | 98° |
| 2026-04-25 18:45 | -0.51459 | -90.05593 | 5279 ft | 266 kts | 98° |
| 2026-04-25 18:46 | -0.51706 | -90.03752 | 5652 ft | 268 kts | 98° |
| 2026-04-25 18:46 | -0.51945 | -90.01955 | 6329 ft | 254 kts | 98° |
| 2026-04-25 18:46 | -0.52294 | -90.00273 | 6886 ft | 246 kts | 116° |
| 2026-04-25 18:46 | -0.53370 | -89.98968 | 7244 ft | 246 kts | 137° |
| 2026-04-25 18:47 | -0.54562 | -89.97730 | 7623 ft | 248 kts | 132° |
| 2026-04-25 18:47 | -0.55645 | -89.96371 | 7934 ft | 256 kts | 118° |
| 2026-04-25 18:47 | -0.56342 | -89.94687 | 8036 ft | 270 kts | 110° |
| 2026-04-25 18:47 | -0.56825 | -89.92835 | 8162 ft | 280 kts | 100° |
| 2026-04-25 18:48 | -0.57026 | -89.90916 | 8439 ft | 283 kts | 90° |
| 2026-04-25 18:48 | -0.57194 | -89.88955 | 8716 ft | 284 kts | 105° |
| 2026-04-25 18:48 | -0.57738 | -89.87053 | 9014 ft | 286 kts | 107° |
| 2026-04-25 18:48 | -0.58291 | -89.85141 | 9365 ft | 288 kts | 107° |
| 2026-04-25 18:49 | -0.58887 | -89.83230 | 9811 ft | 286 kts | 110° |
| 2026-04-25 18:49 | -0.59583 | -89.81375 | 10325 ft | 286 kts | 111° |
| 2026-04-25 18:49 | -0.60303 | -89.79512 | 10805 ft | 289 kts | 112° |
| 2026-04-25 18:49 | -0.60995 | -89.77620 | 11268 ft | 290 kts | 104° |
| 2026-04-25 18:50 | -0.61294 | -89.75624 | 11671 ft | 292 kts | 96° |
| 2026-04-25 18:50 | -0.61469 | -89.73598 | 12053 ft | 294 kts | 95° |
| 2026-04-25 18:50 | -0.61637 | -89.71523 | 12179 ft | 305 kts | 95° |
| 2026-04-25 18:50 | -0.61818 | -89.69402 | 12485 ft | 308 kts | 96° |
| 2026-04-25 18:51 | -0.62021 | -89.67267 | 12836 ft | 309 kts | 96° |
| 2026-04-25 18:51 | -0.62093 | -89.66571 | 12953 ft | 310 kts | 97° |
| 2026-04-25 18:51 | -0.62409 | -89.62961 | 13547 ft | 313 kts | 88° |
| 2026-04-25 18:51 | -0.62192 | -89.60797 | 13892 ft | 314 kts | 83° |
| 2026-04-25 18:52 | -0.61870 | -89.58639 | 14216 ft | 316 kts | 82° |
| 2026-04-25 18:52 | -0.61526 | -89.56495 | 14538 ft | 317 kts | 81° |
| 2026-04-25 18:52 | -0.61166 | -89.54310 | 14873 ft | 319 kts | 81° |
| 2026-04-25 18:52 | -0.60814 | -89.52114 | 15239 ft | 321 kts | 82° |
| 2026-04-25 18:53 | -0.60471 | -89.49903 | 15625 ft | 324 kts | 82° |
| 2026-04-25 18:53 | -0.60148 | -89.47664 | 16042 ft | 328 kts | 83° |
| 2026-04-25 18:53 | -0.59834 | -89.45403 | 16548 ft | 328 kts | 83° |
| 2026-04-25 18:53 | -0.59521 | -89.43134 | 16991 ft | 330 kts | 83° |
| 2026-04-25 18:54 | -0.58873 | -89.38570 | 17729 ft | 334 kts | 83° |
| 2026-04-25 18:54 | -0.58545 | -89.36265 | 18043 ft | 336 kts | 83° |
| 2026-04-25 18:54 | -0.58215 | -89.33953 | 18334 ft | 337 kts | 83° |
| 2026-04-25 18:55 | -0.57885 | -89.31631 | 18590 ft | 338 kts | 83° |
| 2026-04-25 18:55 | -0.57554 | -89.29300 | 18860 ft | 339 kts | 83° |
| 2026-04-25 18:55 | -0.57224 | -89.26967 | 19112 ft | 340 kts | 83° |
| 2026-04-25 18:55 | -0.56892 | -89.24626 | 19339 ft | 341 kts | 83° |
| 2026-04-25 18:56 | -0.56554 | -89.22276 | 19581 ft | 342 kts | 82° |
| 2026-04-25 18:56 | -0.56212 | -89.19914 | 19818 ft | 343 kts | 82° |
| 2026-04-25 18:56 | -0.55875 | -89.17552 | 20035 ft | 344 kts | 82° |
| 2026-04-25 18:56 | -0.55541 | -89.15185 | 20253 ft | 345 kts | 82° |
| 2026-04-25 18:57 | -0.55203 | -89.12814 | 20485 ft | 345 kts | 82° |
| 2026-04-25 18:57 | -0.54860 | -89.10440 | 20736 ft | 345 kts | 82° |
| 2026-04-25 18:57 | -0.54515 | -89.08065 | 20975 ft | 346 kts | 82° |
| 2026-04-25 18:57 | -0.54404 | -89.07293 | 21052 ft | 346 kts | 82° |
| 2026-04-25 18:58 | -0.53832 | -89.03303 | 21458 ft | 346 kts | 82° |
| 2026-04-25 18:58 | -0.53148 | -88.98540 | 21937 ft | 346 kts | 82° |
| 2026-04-25 18:58 | -0.52808 | -88.96158 | 22197 ft | 346 kts | 82° |
| 2026-04-25 18:59 | -0.52142 | -88.91425 | 22693 ft | 346 kts | 82° |
| 2026-04-25 18:59 | -0.51486 | -88.86669 | 23201 ft | 345 kts | 82° |
| 2026-04-25 19:00 | -0.50837 | -88.81933 | 23675 ft | 343 kts | 82° |
| 2026-04-25 19:00 | -0.50620 | -88.80374 | 23813 ft | 342 kts | 81° |
| 2026-04-25 19:01 | -0.49934 | -88.75675 | 24243 ft | 340 kts | 81° |
| 2026-04-25 19:01 | -0.49601 | -88.73340 | 24464 ft | 339 kts | 81° |
| 2026-04-25 19:01 | -0.49163 | -88.70252 | 24749 ft | 338 kts | 81° |
| 2026-04-25 19:01 | -0.48834 | -88.67934 | 24971 ft | 336 kts | 81° |
| 2026-04-25 19:02 | -0.48287 | -88.64105 | 25339 ft | 331 kts | 81° |
| 2026-04-25 19:02 | -0.47963 | -88.61838 | 25550 ft | 327 kts | 81° |
| 2026-04-25 19:02 | -0.47648 | -88.59593 | 25780 ft | 325 kts | 81° |
| 2026-04-25 19:03 | -0.47109 | -88.55890 | 26153 ft | 323 kts | 81° |
| 2026-04-25 19:03 | -0.46693 | -88.52926 | 26465 ft | 321 kts | 81° |
| 2026-04-25 19:03 | -0.46376 | -88.50722 | 26702 ft | 319 kts | 81° |
| 2026-04-25 19:04 | -0.45752 | -88.46351 | 26955 ft | 323 kts | 81° |
| 2026-04-25 19:04 | -0.45439 | -88.44111 | 26983 ft | 327 kts | 81° |
| 2026-04-25 19:05 | -0.44799 | -88.39579 | 26992 ft | 330 kts | 81° |
| 2026-04-25 19:05 | -0.44148 | -88.35033 | 26985 ft | 331 kts | 81° |
| 2026-04-25 19:05 | -0.43835 | -88.32761 | 26988 ft | 330 kts | 81° |
| 2026-04-25 19:06 | -0.43509 | -88.30498 | 26988 ft | 329 kts | 81° |
| 2026-04-25 19:06 | -0.42871 | -88.25962 | 26986 ft | 330 kts | 81° |
| 2026-04-25 19:06 | -0.42541 | -88.23693 | 26992 ft | 330 kts | 81° |
| 2026-04-25 19:07 | -0.41905 | -88.19142 | 26990 ft | 331 kts | 81° |
| 2026-04-25 19:07 | -0.41574 | -88.16864 | 26991 ft | 331 kts | 81° |
| 2026-04-25 19:08 | -0.40939 | -88.12344 | 26981 ft | 331 kts | 81° |
| 2026-04-25 19:08 | -0.40605 | -88.10038 | 26983 ft | 331 kts | 81° |
| 2026-04-25 19:09 | -0.39643 | -88.03217 | 26981 ft | 332 kts | 81° |
| 2026-04-25 19:09 | -0.39429 | -88.01675 | 26982 ft | 332 kts | 81° |
| 2026-04-25 19:09 | -0.38667 | -87.96359 | 26983 ft | 333 kts | 81° |
| 2026-04-25 19:10 | -0.38350 | -87.94067 | 26980 ft | 333 kts | 81° |
| 2026-04-25 19:10 | -0.38027 | -87.91773 | 26983 ft | 333 kts | 81° |
| 2026-04-25 19:10 | -0.37691 | -87.89486 | 26982 ft | 333 kts | 81° |
| 2026-04-25 19:10 | -0.37415 | -87.87187 | 26981 ft | 333 kts | 84° |
| 2026-04-25 19:11 | -0.37276 | -87.84870 | 26983 ft | 333 kts | 86° |
| 2026-04-25 19:11 | -0.37206 | -87.82557 | 26982 ft | 333 kts | 87° |
| 2026-04-25 19:11 | -0.37158 | -87.80241 | 26981 ft | 333 kts | 87° |
| 2026-04-25 19:11 | -0.37103 | -87.77957 | 26982 ft | 333 kts | 87° |
| 2026-04-25 19:12 | -0.37044 | -87.75640 | 26982 ft | 333 kts | 87° |
| 2026-04-25 19:12 | -0.36983 | -87.73327 | 26981 ft | 333 kts | 87° |
| 2026-04-25 19:12 | -0.36902 | -87.71010 | 26981 ft | 334 kts | 86° |
| 2026-04-25 19:12 | -0.36809 | -87.68688 | 26983 ft | 334 kts | 86° |
| 2026-04-25 19:13 | -0.36718 | -87.66366 | 26983 ft | 334 kts | 87° |
| 2026-04-25 19:13 | -0.36644 | -87.64051 | 26978 ft | 333 kts | 86° |
| 2026-04-25 19:13 | -0.36561 | -87.61733 | 26980 ft | 333 kts | 87° |
| 2026-04-25 19:13 | -0.36482 | -87.59418 | 26978 ft | 333 kts | 86° |
| 2026-04-25 19:14 | -0.36391 | -87.57104 | 26978 ft | 333 kts | 86° |
| 2026-04-25 19:14 | -0.36338 | -87.55573 | 26978 ft | 333 kts | 87° |
| 2026-04-25 19:14 | -0.36227 | -87.52480 | 26977 ft | 333 kts | 86° |
| 2026-04-25 19:14 | -0.36146 | -87.50194 | 26982 ft | 333 kts | 86° |
| 2026-04-25 19:15 | -0.36061 | -87.47884 | 26981 ft | 333 kts | 86° |
| 2026-04-25 19:15 | -0.35982 | -87.45573 | 26978 ft | 333 kts | 86° |
| 2026-04-25 19:15 | -0.35895 | -87.43259 | 26982 ft | 333 kts | 86° |
| 2026-04-25 19:15 | -0.35812 | -87.40950 | 26976 ft | 333 kts | 86° |
| 2026-04-25 19:16 | -0.35736 | -87.38636 | 26978 ft | 333 kts | 86° |
| 2026-04-25 19:16 | -0.35647 | -87.36325 | 26979 ft | 333 kts | 86° |
| 2026-04-25 19:16 | -0.35570 | -87.34011 | 26978 ft | 333 kts | 87° |
| 2026-04-25 19:16 | -0.35490 | -87.31695 | 26980 ft | 333 kts | 86° |
| 2026-04-25 19:17 | -0.35400 | -87.29382 | 26982 ft | 333 kts | 86° |
| 2026-04-25 19:17 | -0.35324 | -87.27068 | 26986 ft | 333 kts | 86° |
| 2026-04-25 19:17 | -0.35237 | -87.24755 | 26987 ft | 333 kts | 86° |
| 2026-04-25 19:17 | -0.35156 | -87.22443 | 26982 ft | 333 kts | 86° |
| 2026-04-25 19:18 | -0.35077 | -87.20135 | 26982 ft | 333 kts | 86° |
| 2026-04-25 19:18 | -0.34990 | -87.17824 | 26980 ft | 333 kts | 86° |
| 2026-04-25 19:18 | -0.34912 | -87.15513 | 26980 ft | 333 kts | 86° |
| 2026-04-25 19:18 | -0.34830 | -87.13229 | 26981 ft | 333 kts | 86° |
| 2026-04-25 19:19 | -0.34745 | -87.10917 | 26979 ft | 333 kts | 86° |
| 2026-04-25 19:19 | -0.34666 | -87.08601 | 26977 ft | 333 kts | 86° |
| 2026-04-25 19:19 | -0.34575 | -87.06290 | 26977 ft | 333 kts | 86° |
| 2026-04-25 19:19 | -0.34523 | -87.04760 | 26978 ft | 332 kts | 86° |
| 2026-04-25 19:20 | -0.34416 | -87.01674 | 26977 ft | 332 kts | 86° |
| 2026-04-25 19:20 | -0.34332 | -86.99367 | 26978 ft | 332 kts | 86° |
| 2026-04-25 19:20 | -0.34256 | -86.97059 | 26975 ft | 332 kts | 86° |
| 2026-04-25 19:20 | -0.34172 | -86.94754 | 26977 ft | 332 kts | 86° |
| 2026-04-25 19:21 | -0.34086 | -86.92447 | 26975 ft | 332 kts | 86° |
| 2026-04-25 19:21 | -0.33929 | -86.87831 | 26977 ft | 332 kts | 86° |
| 2026-04-25 19:21 | -0.33852 | -86.85529 | 26978 ft | 332 kts | 86° |
| 2026-04-25 19:22 | -0.33759 | -86.83225 | 26976 ft | 332 kts | 86° |
| 2026-04-25 19:22 | -0.33673 | -86.80918 | 26980 ft | 332 kts | 86° |
| 2026-04-25 19:22 | -0.33512 | -86.76342 | 26979 ft | 332 kts | 86° |
| 2026-04-25 19:23 | -0.33432 | -86.74040 | 26982 ft | 332 kts | 86° |
| 2026-04-25 19:23 | -0.33269 | -86.69419 | 26997 ft | 332 kts | 86° |
| 2026-04-25 19:23 | -0.33187 | -86.67111 | 26985 ft | 332 kts | 86° |
| 2026-04-25 19:24 | -0.33104 | -86.64812 | 26976 ft | 331 kts | 86° |
| 2026-04-25 19:24 | -0.33020 | -86.62514 | 26976 ft | 331 kts | 86° |
| 2026-04-25 19:24 | -0.32852 | -86.57923 | 26974 ft | 331 kts | 86° |
| 2026-04-25 19:25 | -0.32678 | -86.53331 | 26973 ft | 331 kts | 86° |
| 2026-04-25 19:25 | -0.32591 | -86.51036 | 26972 ft | 331 kts | 86° |
| 2026-04-25 19:25 | -0.32501 | -86.48738 | 26975 ft | 330 kts | 86° |
| 2026-04-25 19:26 | -0.32411 | -86.46446 | 26973 ft | 330 kts | 86° |
| 2026-04-25 19:26 | -0.32320 | -86.44152 | 26973 ft | 330 kts | 86° |
| 2026-04-25 19:26 | -0.32229 | -86.41863 | 26973 ft | 330 kts | 86° |
| 2026-04-25 19:26 | -0.32140 | -86.39573 | 26973 ft | 330 kts | 87° |
| 2026-04-25 19:27 | -0.32071 | -86.37282 | 26974 ft | 330 kts | 87° |
| 2026-04-25 19:27 | -0.32023 | -86.35768 | 26974 ft | 330 kts | 86° |
| 2026-04-25 19:27 | -0.31908 | -86.32709 | 26974 ft | 330 kts | 86° |
| 2026-04-25 19:27 | -0.31819 | -86.30421 | 26972 ft | 329 kts | 87° |
| 2026-04-25 19:28 | -0.31746 | -86.28158 | 26973 ft | 329 kts | 86° |
| 2026-04-25 19:28 | -0.31661 | -86.25876 | 26974 ft | 329 kts | 86° |
| 2026-04-25 19:28 | -0.31579 | -86.23590 | 26970 ft | 329 kts | 87° |
| 2026-04-25 19:28 | -0.31506 | -86.21304 | 26971 ft | 329 kts | 86° |
| 2026-04-25 19:29 | -0.31417 | -86.19020 | 26972 ft | 329 kts | 86° |
| 2026-04-25 19:29 | -0.31332 | -86.16740 | 26975 ft | 329 kts | 87° |
| 2026-04-25 19:29 | -0.31261 | -86.14455 | 26980 ft | 329 kts | 87° |
| 2026-04-25 19:29 | -0.31177 | -86.12171 | 26977 ft | 328 kts | 87° |
| 2026-04-25 19:30 | -0.31101 | -86.09891 | 26976 ft | 328 kts | 87° |
| 2026-04-25 19:30 | -0.31017 | -86.07610 | 26976 ft | 328 kts | 86° |
| 2026-04-25 19:30 | -0.30925 | -86.05330 | 26973 ft | 328 kts | 86° |
| 2026-04-25 19:30 | -0.30848 | -86.03048 | 26970 ft | 328 kts | 87° |
| 2026-04-25 19:31 | -0.30775 | -86.00769 | 26971 ft | 328 kts | 87° |
| 2026-04-25 19:31 | -0.30693 | -85.98492 | 26972 ft | 328 kts | 86° |
| 2026-04-25 19:31 | -0.30603 | -85.96213 | 26973 ft | 328 kts | 87° |
| 2026-04-25 19:31 | -0.30528 | -85.93935 | 26972 ft | 328 kts | 87° |
| 2026-04-25 19:32 | -0.30451 | -85.91656 | 26971 ft | 328 kts | 87° |
| 2026-04-25 19:32 | -0.30371 | -85.89406 | 26972 ft | 328 kts | 86° |
| 2026-04-25 19:32 | -0.30279 | -85.87122 | 26975 ft | 331 kts | 86° |
| 2026-04-25 19:32 | -0.30251 | -85.86343 | 26978 ft | 333 kts | 87° |
| 2026-04-25 19:33 | -0.30120 | -85.82446 | 26993 ft | 343 kts | 87° |
| 2026-04-25 19:33 | -0.30042 | -85.80048 | 26989 ft | 348 kts | 87° |
| 2026-04-25 19:33 | -0.29957 | -85.77611 | 26989 ft | 354 kts | 87° |
| 2026-04-25 19:33 | -0.29863 | -85.75136 | 26993 ft | 359 kts | 86° |
| 2026-04-25 19:34 | -0.29765 | -85.72628 | 26994 ft | 364 kts | 87° |
| 2026-04-25 19:34 | -0.29673 | -85.70073 | 26989 ft | 369 kts | 87° |
| 2026-04-25 19:34 | -0.29582 | -85.67483 | 26988 ft | 374 kts | 87° |
| 2026-04-25 19:34 | -0.29491 | -85.64893 | 26985 ft | 379 kts | 87° |
| 2026-04-25 19:35 | -0.29397 | -85.62243 | 26981 ft | 384 kts | 87° |
| 2026-04-25 19:35 | -0.29301 | -85.59557 | 26983 ft | 388 kts | 87° |
| 2026-04-25 19:35 | -0.29203 | -85.56847 | 26977 ft | 392 kts | 87° |
| 2026-04-25 19:35 | -0.29102 | -85.54104 | 26977 ft | 396 kts | 87° |
| 2026-04-25 19:36 | -0.28999 | -85.51331 | 26976 ft | 400 kts | 87° |
| 2026-04-25 19:36 | -0.28893 | -85.48533 | 26974 ft | 404 kts | 87° |
| 2026-04-25 19:36 | -0.28787 | -85.45749 | 26977 ft | 408 kts | 87° |
| 2026-04-25 19:36 | -0.28675 | -85.42903 | 26976 ft | 411 kts | 87° |
| 2026-04-25 19:37 | -0.28563 | -85.40032 | 26975 ft | 415 kts | 87° |
| 2026-04-25 19:37 | -0.28449 | -85.37141 | 26974 ft | 418 kts | 87° |
| 2026-04-25 19:37 | -0.28346 | -85.34230 | 26973 ft | 421 kts | 87° |
| 2026-04-25 19:37 | -0.28246 | -85.31303 | 26973 ft | 423 kts | 87° |
| 2026-04-25 19:38 | -0.28141 | -85.28360 | 26970 ft | 424 kts | 87° |
| 2026-04-25 19:38 | -0.28047 | -85.25418 | 26970 ft | 424 kts | 87° |
| 2026-04-25 19:38 | -0.27934 | -85.22477 | 26966 ft | 424 kts | 87° |
| 2026-04-25 19:38 | -0.27828 | -85.19536 | 26966 ft | 424 kts | 87° |
| 2026-04-25 19:39 | -0.27717 | -85.16589 | 26967 ft | 424 kts | 87° |
| 2026-04-25 19:39 | -0.27625 | -85.13679 | 26968 ft | 424 kts | 87° |
| 2026-04-25 19:39 | -0.27516 | -85.10736 | 26966 ft | 424 kts | 87° |
| 2026-04-25 19:39 | -0.27418 | -85.07792 | 26969 ft | 424 kts | 87° |
| 2026-04-25 19:40 | -0.27312 | -85.04834 | 26969 ft | 425 kts | 87° |
| 2026-04-25 19:40 | -0.27204 | -85.01884 | 26968 ft | 425 kts | 87° |
| 2026-04-25 19:40 | -0.27096 | -84.98931 | 26971 ft | 425 kts | 87° |
| 2026-04-25 19:40 | -0.27002 | -84.95978 | 26970 ft | 425 kts | 87° |
| 2026-04-25 19:41 | -0.26888 | -84.93023 | 26970 ft | 425 kts | 87° |
| 2026-04-25 19:41 | -0.26788 | -84.90068 | 26970 ft | 425 kts | 87° |
| 2026-04-25 19:41 | -0.26683 | -84.87116 | 26968 ft | 425 kts | 87° |
| 2026-04-25 19:41 | -0.26648 | -84.86153 | 26967 ft | 425 kts | 87° |
| 2026-04-25 19:42 | -0.26481 | -84.81241 | 26969 ft | 425 kts | 87° |
| 2026-04-25 19:42 | -0.26372 | -84.78283 | 26972 ft | 426 kts | 87° |
| 2026-04-25 19:42 | -0.26258 | -84.75331 | 26972 ft | 426 kts | 87° |
| 2026-04-25 19:42 | -0.26157 | -84.72374 | 26972 ft | 426 kts | 87° |
| 2026-04-25 19:43 | -0.26060 | -84.69418 | 26972 ft | 425 kts | 87° |
| 2026-04-25 19:43 | -0.25962 | -84.66469 | 26971 ft | 424 kts | 87° |
| 2026-04-25 19:43 | -0.25845 | -84.63514 | 26971 ft | 425 kts | 87° |
| 2026-04-25 19:43 | -0.25739 | -84.60557 | 26971 ft | 425 kts | 87° |
| 2026-04-25 19:44 | -0.25637 | -84.57637 | 26973 ft | 425 kts | 87° |
| 2026-04-25 19:44 | -0.25535 | -84.54682 | 26972 ft | 426 kts | 87° |
| 2026-04-25 19:44 | -0.25433 | -84.51730 | 26973 ft | 426 kts | 87° |
| 2026-04-25 19:44 | -0.25331 | -84.48765 | 26972 ft | 426 kts | 87° |
| 2026-04-25 19:45 | -0.25228 | -84.45806 | 26972 ft | 426 kts | 87° |
| 2026-04-25 19:45 | -0.25123 | -84.42853 | 26971 ft | 426 kts | 87° |
| 2026-04-25 19:45 | -0.25017 | -84.39892 | 26973 ft | 426 kts | 87° |
| 2026-04-25 19:45 | -0.24910 | -84.36956 | 26973 ft | 426 kts | 87° |
| 2026-04-25 19:46 | -0.24799 | -84.33959 | 26973 ft | 426 kts | 87° |
| 2026-04-25 19:46 | -0.24691 | -84.31036 | 26971 ft | 426 kts | 87° |
| 2026-04-25 19:46 | -0.24579 | -84.28073 | 26970 ft | 426 kts | 87° |
| 2026-04-25 19:46 | -0.24466 | -84.25110 | 26970 ft | 426 kts | 87° |
| 2026-04-25 19:47 | -0.24353 | -84.22148 | 26969 ft | 426 kts | 87° |
| 2026-04-25 19:47 | -0.24277 | -84.20181 | 26970 ft | 427 kts | 87° |
| 2026-04-25 19:47 | -0.24161 | -84.17221 | 26969 ft | 427 kts | 87° |
| 2026-04-25 19:47 | -0.24003 | -84.13249 | 26975 ft | 427 kts | 87° |
| 2026-04-25 19:48 | -0.23925 | -84.11285 | 26973 ft | 427 kts | 87° |
| 2026-04-25 19:48 | -0.23797 | -84.07318 | 26972 ft | 427 kts | 87° |
| 2026-04-25 19:48 | -0.23726 | -84.05356 | 26973 ft | 427 kts | 87° |
| 2026-04-25 19:48 | -0.23611 | -84.02391 | 26971 ft | 427 kts | 87° |
| 2026-04-25 19:49 | -0.23517 | -83.99423 | 26973 ft | 427 kts | 88° |
| 2026-04-25 19:49 | -0.23454 | -83.97463 | 26974 ft | 426 kts | 87° |
| 2026-04-25 19:49 | -0.23301 | -83.93499 | 26973 ft | 426 kts | 87° |
| 2026-04-25 19:49 | -0.23200 | -83.90539 | 26970 ft | 426 kts | 88° |
| 2026-04-25 19:50 | -0.22991 | -83.84662 | 26971 ft | 426 kts | 88° |
| 2026-04-25 19:50 | -0.22893 | -83.81695 | 26970 ft | 426 kts | 87° |
| 2026-04-25 19:50 | -0.22779 | -83.78732 | 26975 ft | 426 kts | 87° |
| 2026-04-25 19:51 | -0.22683 | -83.75756 | 26974 ft | 426 kts | 88° |
| 2026-04-25 19:51 | -0.22578 | -83.72835 | 26973 ft | 426 kts | 87° |
| 2026-04-25 19:51 | -0.22463 | -83.69876 | 26975 ft | 426 kts | 87° |
| 2026-04-25 19:51 | -0.22365 | -83.66916 | 26975 ft | 426 kts | 88° |
| 2026-04-25 19:52 | -0.22261 | -83.63959 | 26974 ft | 426 kts | 87° |
| 2026-04-25 19:52 | -0.22155 | -83.61000 | 26972 ft | 425 kts | 88° |
| 2026-04-25 19:52 | -0.22056 | -83.58041 | 26975 ft | 426 kts | 87° |
| 2026-04-25 19:52 | -0.21950 | -83.55083 | 26972 ft | 426 kts | 88° |
| 2026-04-25 19:53 | -0.21849 | -83.52126 | 26971 ft | 426 kts | 88° |
| 2026-04-25 19:53 | -0.21743 | -83.49165 | 26972 ft | 426 kts | 87° |
| 2026-04-25 19:53 | -0.21634 | -83.46203 | 26970 ft | 426 kts | 87° |
| 2026-04-25 19:53 | -0.21533 | -83.43288 | 26972 ft | 426 kts | 88° |
| 2026-04-25 19:54 | -0.21432 | -83.40332 | 26970 ft | 426 kts | 87° |
| 2026-04-25 19:54 | -0.21328 | -83.37369 | 26972 ft | 426 kts | 87° |
| 2026-04-25 19:54 | -0.21211 | -83.34415 | 26973 ft | 426 kts | 87° |
| 2026-04-25 19:54 | -0.21135 | -83.32412 | 26969 ft | 426 kts | 87° |
| 2026-04-25 19:55 | -0.20993 | -83.28490 | 26968 ft | 426 kts | 87° |
| 2026-04-25 19:55 | -0.20888 | -83.25531 | 26969 ft | 426 kts | 87° |
| 2026-04-25 19:55 | -0.20784 | -83.22570 | 26970 ft | 426 kts | 87° |
| 2026-04-25 19:55 | -0.20679 | -83.19613 | 26967 ft | 426 kts | 87° |
| 2026-04-25 19:56 | -0.20574 | -83.16652 | 26968 ft | 426 kts | 87° |
| 2026-04-25 19:56 | -0.20467 | -83.13691 | 26970 ft | 426 kts | 87° |
| 2026-04-25 19:56 | -0.20359 | -83.10733 | 26969 ft | 426 kts | 87° |
| 2026-04-25 19:56 | -0.20249 | -83.07765 | 26970 ft | 427 kts | 87° |
| 2026-04-25 19:57 | -0.20138 | -83.04800 | 26970 ft | 427 kts | 87° |
| 2026-04-25 19:57 | -0.20024 | -83.01833 | 26970 ft | 427 kts | 87° |
| 2026-04-25 19:57 | -0.19911 | -82.98874 | 26970 ft | 426 kts | 87° |
| 2026-04-25 19:57 | -0.19795 | -82.95915 | 26969 ft | 426 kts | 87° |
| 2026-04-25 19:58 | -0.19680 | -82.92987 | 26970 ft | 426 kts | 87° |
| 2026-04-25 19:58 | -0.19563 | -82.89988 | 26969 ft | 426 kts | 87° |
| 2026-04-25 19:58 | -0.19467 | -82.87068 | 26969 ft | 426 kts | 88° |
| 2026-04-25 19:58 | -0.19361 | -82.84110 | 26968 ft | 426 kts | 87° |
| 2026-04-25 19:59 | -0.19248 | -82.81151 | 26965 ft | 426 kts | 87° |
| 2026-04-25 19:59 | -0.19154 | -82.78194 | 26967 ft | 426 kts | 88° |
| 2026-04-25 19:59 | -0.19053 | -82.75228 | 26967 ft | 426 kts | 87° |
| 2026-04-25 19:59 | -0.18939 | -82.72270 | 26969 ft | 426 kts | 87° |
| 2026-04-25 20:00 | -0.18828 | -82.69309 | 26968 ft | 427 kts | 88° |
| 2026-04-25 20:00 | -0.18769 | -82.67346 | 26967 ft | 427 kts | 88° |
| 2026-04-25 20:00 | -0.18625 | -82.63382 | 26965 ft | 426 kts | 87° |
| 2026-04-25 20:00 | -0.18517 | -82.60419 | 26962 ft | 426 kts | 88° |
| 2026-04-25 20:01 | -0.18307 | -82.54498 | 26960 ft | 426 kts | 88° |
| 2026-04-25 20:01 | -0.18203 | -82.51533 | 26958 ft | 427 kts | 87° |
| 2026-04-25 20:01 | -0.18096 | -82.48566 | 26959 ft | 427 kts | 88° |
| 2026-04-25 20:02 | -0.17995 | -82.45643 | 26961 ft | 427 kts | 87° |
| 2026-04-25 20:02 | -0.17883 | -82.42682 | 26962 ft | 427 kts | 88° |
| 2026-04-25 20:02 | -0.17785 | -82.39715 | 26960 ft | 427 kts | 87° |
| 2026-04-25 20:02 | -0.17670 | -82.36751 | 26962 ft | 426 kts | 87° |
| 2026-04-25 20:03 | -0.17573 | -82.33790 | 26963 ft | 426 kts | 88° |
| 2026-04-25 20:03 | -0.17462 | -82.30827 | 26964 ft | 426 kts | 87° |
| 2026-04-25 20:03 | -0.17353 | -82.27868 | 26966 ft | 426 kts | 88° |
| 2026-04-25 20:03 | -0.17258 | -82.24904 | 26964 ft | 426 kts | 88° |
| 2026-04-25 20:04 | -0.17144 | -82.21940 | 26965 ft | 427 kts | 87° |
| 2026-04-25 20:04 | -0.17039 | -82.18972 | 26962 ft | 427 kts | 88° |
| 2026-04-25 20:04 | -0.16935 | -82.16008 | 26963 ft | 427 kts | 87° |
| 2026-04-25 20:04 | -0.16833 | -82.13042 | 26960 ft | 427 kts | 88° |
| 2026-04-25 20:05 | -0.16720 | -82.10078 | 26961 ft | 427 kts | 87° |
| 2026-04-25 20:05 | -0.16615 | -82.07147 | 26963 ft | 427 kts | 88° |
| 2026-04-25 20:05 | -0.16515 | -82.04141 | 26961 ft | 427 kts | 88° |
| 2026-04-25 20:05 | -0.16414 | -82.01210 | 26961 ft | 427 kts | 87° |
| 2026-04-25 20:06 | -0.16292 | -81.98241 | 26960 ft | 427 kts | 87° |
| 2026-04-25 20:06 | -0.16183 | -81.95283 | 26962 ft | 427 kts | 87° |
| 2026-04-25 20:06 | -0.16080 | -81.92315 | 26959 ft | 427 kts | 88° |
| 2026-04-25 20:06 | -0.15980 | -81.89348 | 26958 ft | 427 kts | 88° |
| 2026-04-25 20:07 | -0.15879 | -81.86378 | 26959 ft | 427 kts | 88° |
| 2026-04-25 20:07 | -0.15779 | -81.83407 | 26958 ft | 427 kts | 88° |
| 2026-04-25 20:07 | -0.15664 | -81.80434 | 26955 ft | 427 kts | 87° |
| 2026-04-25 20:07 | -0.15551 | -81.77473 | 26955 ft | 427 kts | 87° |
| 2026-04-25 20:08 | -0.15442 | -81.74504 | 26954 ft | 427 kts | 87° |
| 2026-04-25 20:08 | -0.15335 | -81.71537 | 26957 ft | 427 kts | 87° |
| 2026-04-25 20:08 | -0.15229 | -81.68571 | 26956 ft | 428 kts | 87° |
| 2026-04-25 20:08 | -0.15120 | -81.65601 | 26955 ft | 428 kts | 87° |
| 2026-04-25 20:09 | -0.15014 | -81.62670 | 26957 ft | 428 kts | 87° |
| 2026-04-25 20:09 | -0.14905 | -81.59699 | 26956 ft | 428 kts | 87° |
| 2026-04-25 20:09 | -0.14795 | -81.56731 | 26955 ft | 427 kts | 87° |
| 2026-04-25 20:09 | -0.14683 | -81.53759 | 26957 ft | 427 kts | 87° |
| 2026-04-25 20:10 | -0.14571 | -81.50793 | 26955 ft | 427 kts | 87° |
| 2026-04-25 20:10 | -0.14457 | -81.47821 | 26955 ft | 427 kts | 87° |
| 2026-04-25 20:10 | -0.14342 | -81.44849 | 26958 ft | 428 kts | 87° |
| 2026-04-25 20:10 | -0.14226 | -81.41881 | 26953 ft | 428 kts | 87° |
| 2026-04-25 20:11 | -0.14110 | -81.38911 | 26954 ft | 428 kts | 87° |
| 2026-04-25 20:11 | -0.14013 | -81.35939 | 26953 ft | 428 kts | 88° |
| 2026-04-25 20:11 | -0.13907 | -81.32969 | 26954 ft | 428 kts | 87° |
| 2026-04-25 20:11 | -0.13793 | -81.30002 | 26952 ft | 428 kts | 87° |
| 2026-04-25 20:12 | -0.13698 | -81.27030 | 26951 ft | 428 kts | 88° |
| 2026-04-25 20:12 | -0.13594 | -81.24092 | 26950 ft | 428 kts | 87° |
| 2026-04-25 20:12 | -0.13479 | -81.21126 | 26946 ft | 428 kts | 88° |
| 2026-04-25 20:12 | -0.13445 | -81.20119 | 26948 ft | 428 kts | 88° |
| 2026-04-25 20:13 | -0.13279 | -81.15187 | 26947 ft | 428 kts | 87° |
| 2026-04-25 20:13 | -0.13162 | -81.12217 | 26946 ft | 428 kts | 87° |
| 2026-04-25 20:13 | -0.13065 | -81.09244 | 26943 ft | 428 kts | 88° |
| 2026-04-25 20:13 | -0.12965 | -81.06276 | 26944 ft | 428 kts | 87° |
| 2026-04-25 20:14 | -0.12847 | -81.03305 | 26943 ft | 428 kts | 87° |
| 2026-04-25 20:14 | -0.12749 | -81.00335 | 26945 ft | 428 kts | 88° |
| 2026-04-25 20:14 | -0.12643 | -80.97362 | 26944 ft | 428 kts | 87° |
| 2026-04-25 20:14 | -0.12533 | -80.94392 | 26945 ft | 428 kts | 88° |
| 2026-04-25 20:15 | -0.12436 | -80.91415 | 26946 ft | 428 kts | 87° |
| 2026-04-25 20:15 | -0.12320 | -80.88448 | 26946 ft | 428 kts | 87° |
| 2026-04-25 20:15 | -0.12221 | -80.85471 | 26946 ft | 428 kts | 88° |
| 2026-04-25 20:15 | -0.12122 | -80.82489 | 26945 ft | 428 kts | 87° |
| 2026-04-25 20:16 | -0.12002 | -80.79516 | 26945 ft | 428 kts | 87° |
| 2026-04-25 20:16 | -0.11899 | -80.76545 | 26945 ft | 428 kts | 88° |
| 2026-04-25 20:16 | -0.11803 | -80.73571 | 26944 ft | 428 kts | 88° |
| 2026-04-25 20:16 | -0.11687 | -80.70592 | 26948 ft | 428 kts | 87° |
| 2026-04-25 20:17 | -0.11585 | -80.67657 | 26947 ft | 428 kts | 88° |
| 2026-04-25 20:17 | -0.11486 | -80.64682 | 26948 ft | 428 kts | 88° |
| 2026-04-25 20:17 | -0.11381 | -80.61703 | 26948 ft | 428 kts | 87° |
| 2026-04-25 20:17 | -0.11271 | -80.58733 | 26950 ft | 428 kts | 88° |
| 2026-04-25 20:18 | -0.11169 | -80.55758 | 26947 ft | 428 kts | 88° |
| 2026-04-25 20:18 | -0.11069 | -80.52786 | 26949 ft | 428 kts | 88° |
| 2026-04-25 20:18 | -0.10958 | -80.49811 | 26950 ft | 428 kts | 87° |
| 2026-04-25 20:18 | -0.10849 | -80.46835 | 26951 ft | 428 kts | 88° |
| 2026-04-25 20:19 | -0.10743 | -80.43856 | 26949 ft | 428 kts | 88° |
| 2026-04-25 20:19 | -0.10639 | -80.40883 | 26954 ft | 428 kts | 88° |
| 2026-04-25 20:19 | -0.10534 | -80.37906 | 26954 ft | 428 kts | 88° |
| 2026-04-25 20:19 | -0.10428 | -80.34937 | 26957 ft | 428 kts | 88° |
| 2026-04-25 20:20 | -0.10321 | -80.31959 | 26957 ft | 428 kts | 88° |
| 2026-04-25 20:20 | -0.10214 | -80.28989 | 26957 ft | 428 kts | 87° |
| 2026-04-25 20:20 | -0.10104 | -80.26018 | 26960 ft | 428 kts | 87° |
| 2026-04-25 20:20 | -0.09995 | -80.23045 | 26960 ft | 428 kts | 87° |
| 2026-04-25 20:21 | -0.09884 | -80.20111 | 26965 ft | 428 kts | 87° |
| 2026-04-25 20:21 | -0.09770 | -80.17133 | 26966 ft | 428 kts | 87° |
| 2026-04-25 20:21 | -0.09654 | -80.14161 | 26975 ft | 428 kts | 87° |
| 2026-04-25 20:21 | -0.09537 | -80.11190 | 26976 ft | 428 kts | 87° |
| 2026-04-25 20:22 | -0.09419 | -80.08216 | 26986 ft | 428 kts | 87° |
| 2026-04-25 20:22 | -0.09378 | -80.07206 | 26988 ft | 428 kts | 87° |
| 2026-04-25 20:22 | -0.09211 | -80.02259 | 26986 ft | 429 kts | 88° |
| 2026-04-25 20:22 | -0.09105 | -79.99285 | 26986 ft | 429 kts | 87° |
| 2026-04-25 20:23 | -0.08989 | -79.96310 | 26992 ft | 428 kts | 88° |
| 2026-04-25 20:23 | -0.08895 | -79.93335 | 26990 ft | 428 kts | 88° |
| 2026-04-25 20:23 | -0.08786 | -79.90355 | 26994 ft | 428 kts | 87° |
| 2026-04-25 20:23 | -0.08682 | -79.87655 | 26996 ft | 428 kts | 88° |
| 2026-04-25 20:24 | -0.08583 | -79.84680 | 27003 ft | 429 kts | 88° |
| 2026-04-25 20:24 | -0.08483 | -79.81739 | 27000 ft | 429 kts | 87° |
| 2026-04-25 20:24 | -0.08369 | -79.78763 | 27005 ft | 429 kts | 88° |
| 2026-04-25 20:24 | -0.08273 | -79.75779 | 27010 ft | 429 kts | 88° |
| 2026-04-25 20:25 | -0.08166 | -79.72806 | 27013 ft | 429 kts | 87° |
| 2026-04-25 20:25 | -0.08061 | -79.69829 | 27015 ft | 429 kts | 88° |
| 2026-04-25 20:25 | -0.07993 | -79.67701 | 27018 ft | 429 kts | 88° |
| 2026-04-25 20:25 | -0.07880 | -79.64718 | 27019 ft | 429 kts | 88° |
| 2026-04-25 20:26 | -0.07774 | -79.61736 | 27013 ft | 429 kts | 88° |
| 2026-04-25 20:26 | -0.07676 | -79.58755 | 26985 ft | 429 kts | 88° |
| 2026-04-25 20:26 | -0.07575 | -79.55774 | 26971 ft | 429 kts | 88° |
| 2026-04-25 20:26 | -0.07462 | -79.52799 | 26970 ft | 428 kts | 88° |
| 2026-04-25 20:27 | -0.07363 | -79.49857 | 26972 ft | 428 kts | 88° |
| 2026-04-25 20:27 | -0.07262 | -79.46884 | 26972 ft | 428 kts | 88° |
| 2026-04-25 20:27 | -0.07153 | -79.43908 | 26976 ft | 428 kts | 87° |
| 2026-04-25 20:27 | -0.07039 | -79.40937 | 26982 ft | 429 kts | 88° |
| 2026-04-25 20:28 | -0.06935 | -79.37963 | 26986 ft | 429 kts | 88° |
| 2026-04-25 20:28 | -0.06832 | -79.34976 | 26990 ft | 429 kts | 88° |
| 2026-04-25 20:28 | -0.06729 | -79.32001 | 26996 ft | 429 kts | 88° |
| 2026-04-25 20:28 | -0.06626 | -79.29017 | 27003 ft | 429 kts | 88° |
| 2026-04-25 20:29 | -0.06522 | -79.26041 | 27009 ft | 429 kts | 88° |
| 2026-04-25 20:29 | -0.06416 | -79.23058 | 27019 ft | 429 kts | 88° |
| 2026-04-25 20:29 | -0.06309 | -79.20095 | 26398 ft | 427 kts | 88° |
| 2026-04-25 20:29 | -0.06191 | -79.17137 | 25650 ft | 425 kts | 86° |
| 2026-04-25 20:30 | -0.05857 | -79.14217 | 24969 ft | 421 kts | 79° |
| 2026-04-25 20:30 | -0.05191 | -79.11382 | 24300 ft | 417 kts | 73° |
| 2026-04-25 20:30 | -0.04338 | -79.08635 | 23634 ft | 414 kts | 70° |
| 2026-04-25 20:30 | -0.03395 | -79.05925 | 22853 ft | 411 kts | 70° |
| 2026-04-25 20:31 | -0.02430 | -79.03251 | 22123 ft | 407 kts | 69° |
| 2026-04-25 20:31 | -0.01477 | -79.00602 | 21432 ft | 403 kts | 70° |
| 2026-04-25 20:31 | -0.00566 | -78.98006 | 20794 ft | 399 kts | 70° |
| 2026-04-25 20:31 | 0.00338 | -78.95400 | 20123 ft | 396 kts | 70° |
| 2026-04-25 20:32 | 0.01226 | -78.92802 | 19432 ft | 393 kts | 71° |
| 2026-04-25 20:32 | 0.02089 | -78.90219 | 18775 ft | 390 kts | 71° |
| 2026-04-25 20:32 | 0.02942 | -78.87655 | 18079 ft | 387 kts | 71° |
| 2026-04-25 20:32 | 0.03790 | -78.85119 | 17382 ft | 382 kts | 71° |
| 2026-04-25 20:33 | 0.04653 | -78.82617 | 16703 ft | 378 kts | 71° |
| 2026-04-25 20:33 | 0.05482 | -78.80180 | 16378 ft | 364 kts | 71° |
| 2026-04-25 20:33 | 0.06272 | -78.77842 | 16207 ft | 346 kts | 71° |
| 2026-04-25 20:33 | 0.06520 | -78.77108 | 16185 ft | 340 kts | 71° |
| 2026-04-25 20:34 | 0.07729 | -78.73531 | 16142 ft | 315 kts | 71° |
| 2026-04-25 20:34 | 0.08413 | -78.71510 | 16134 ft | 299 kts | 71° |
| 2026-04-25 20:34 | 0.09063 | -78.69594 | 16129 ft | 284 kts | 71° |
| 2026-04-25 20:34 | 0.09680 | -78.67774 | 16131 ft | 272 kts | 71° |
| 2026-04-25 20:35 | 0.10289 | -78.65980 | 16107 ft | 273 kts | 71° |
| 2026-04-25 20:35 | 0.10901 | -78.64184 | 15832 ft | 273 kts | 71° |
| 2026-04-25 20:35 | 0.11306 | -78.62992 | 15656 ft | 272 kts | 71° |
| 2026-04-25 20:35 | 0.12118 | -78.60614 | 15357 ft | 266 kts | 71° |
| 2026-04-25 20:36 | 0.12703 | -78.58902 | 15347 ft | 254 kts | 71° |
| 2026-04-25 20:36 | 0.13075 | -78.57814 | 15330 ft | 246 kts | 71° |
| 2026-04-25 20:36 | 0.13607 | -78.56253 | 15251 ft | 230 kts | 72° |
| 2026-04-25 20:36 | 0.13513 | -78.54256 | 14755 ft | 219 kts | 120° |
| 2026-04-25 20:37 | 0.12499 | -78.53147 | 14337 ft | 216 kts | 140° |
| 2026-04-25 20:37 | 0.11699 | -78.52531 | 14176 ft | 214 kts | 144° |
| 2026-04-25 20:37 | 0.10053 | -78.51474 | 14015 ft | 210 kts | 149° |
| 2026-04-25 20:37 | 0.09199 | -78.50988 | 13991 ft | 209 kts | 150° |
| 2026-04-25 20:38 | 0.07918 | -78.50304 | 13968 ft | 209 kts | 152° |
| 2026-04-25 20:38 | 0.06641 | -78.49657 | 13975 ft | 208 kts | 153° |
| 2026-04-25 20:38 | 0.05333 | -78.49015 | 13422 ft | 215 kts | 154° |
| 2026-04-25 20:38 | 0.03989 | -78.48362 | 12953 ft | 214 kts | 154° |
| 2026-04-25 20:39 | 0.02654 | -78.47719 | 12783 ft | 211 kts | 155° |
| 2026-04-25 20:39 | 0.01338 | -78.47097 | 12701 ft | 208 kts | 155° |
| 2026-04-25 20:39 | 0.00030 | -78.46483 | 12674 ft | 207 kts | 155° |
| 2026-04-25 20:39 | -0.00847 | -78.46098 | 12679 ft | 207 kts | 159° |
| 2026-04-25 20:40 | -0.02684 | -78.45497 | 12683 ft | 208 kts | 164° |
| 2026-04-25 20:40 | -0.04080 | -78.45111 | 12677 ft | 207 kts | 165° |
| 2026-04-25 20:40 | -0.05488 | -78.44745 | 12149 ft | 214 kts | 168° |
| 2026-04-25 20:40 | -0.06948 | -78.44501 | 11800 ft | 211 kts | 173° |
| 2026-04-25 20:41 | -0.08362 | -78.44354 | 11638 ft | 196 kts | 176° |
| 2026-04-25 20:41 | -0.09639 | -78.44252 | 11541 ft | 172 kts | 176° |
| 2026-04-25 20:41 | -0.10794 | -78.44159 | 11276 ft | 161 kts | 176° |
| 2026-04-25 20:41 | -0.11865 | -78.44066 | 11015 ft | 150 kts | 176° |
| 2026-04-25 20:42 | -0.12869 | -78.43976 | 10892 ft | 140 kts | 176° |
| 2026-04-25 20:42 | -0.13846 | -78.43887 | 10871 ft | 141 kts | 176° |
| 2026-04-25 20:42 | -0.14801 | -78.43705 | 10638 ft | 144 kts | 162° |
| 2026-04-25 20:42 | -0.15752 | -78.43350 | 10448 ft | 143 kts | 160° |
| 2026-04-25 20:43 | -0.16667 | -78.42961 | 10391 ft | 145 kts | 159° |
| 2026-04-25 20:43 | -0.17577 | -78.42542 | 10384 ft | 144 kts | 156° |
| 2026-04-25 20:43 | -0.18432 | -78.41973 | 10247 ft | 150 kts | 140° |
| 2026-04-25 20:43 | -0.19231 | -78.41290 | 10128 ft | 152 kts | 137° |
| 2026-04-25 20:44 | -0.19966 | -78.40529 | 9969 ft | 152 kts | 112° |
| 2026-04-25 20:44 | -0.20319 | -78.39569 | 9866 ft | 149 kts | 103° |
| 2026-04-25 20:44 | -0.20635 | -78.38578 | 9731 ft | 150 kts | 101° |
| 2026-04-25 20:44 | -0.20497 | -78.37620 | 9608 ft | 139 kts | 52° |
| 2026-04-25 20:45 | -0.19871 | -78.36885 | 9527 ft | 139 kts | 39° |
| 2026-04-25 20:45 | -0.19154 | -78.36263 | 9405 ft | 137 kts | 37° |
| 2026-04-25 20:45 | -0.18384 | -78.35687 | 9258 ft | 139 kts | 33° |
| 2026-04-25 20:45 | -0.17516 | -78.35278 | 9033 ft | 138 kts | 357° |
| 2026-04-25 20:46 | -0.16565 | -78.35289 | 8852 ft | 137 kts | 357° |
| 2026-04-25 20:46 | -0.15612 | -78.35321 | 8513 ft | 134 kts | 357° |
| 2026-04-25 20:46 | -0.14695 | -78.35357 | 8149 ft | 133 kts | 359° |
| 2026-04-25 20:46 | -0.13803 | -78.35391 | 7910 ft | 120 kts | 358° |
| 2026-04-25 20:47 | -0.13044 | -78.35418 | 7878 ft | 87 kts | 358° |
| 2026-04-25 20:47 | -0.12647 | -78.35444 | 7859 ft | 44 kts | 347° |
| 2026-04-25 20:47 | -0.12426 | -78.35554 | 7846 ft | 26 kts | 327° |
| 2026-04-25 20:47 | -0.12357 | -78.35692 | 7841 ft | 19 kts | 266° |
| 2026-04-25 20:48 | -0.12367 | -78.35817 | 7838 ft | 16 kts | 246° |
| 2026-04-25 20:48 | -0.12462 | -78.35839 | 7834 ft | 14 kts | 178° |
| 2026-04-25 20:48 | -0.12560 | -78.35834 | 7841 ft | 13 kts | 177° |
| 2026-04-25 20:48 | -0.12632 | -78.35847 | 7836 ft | 8 kts | 250° |
| 2026-04-25 20:49 | -0.12639 | -78.35899 | 7840 ft | 7 kts | 266° |
| 2026-04-25 20:49 | -0.12640 | -78.35920 | 7840 ft | 0 kts | 266° |